sensor_id;sensor_type;location;lat;lon;timestamp;P1;durP1;ratioP1;P2;durP2;ratioP2
49678;SDS011;35570;48.218;16.326;2023-04-06T00:01:27;6.28;;;3.97;;
49678;SDS011;35570;48.218;16.326;2023-04-06T00:03:52;7.25;;;4.07;;
49678;SDS011;35570;48.218;16.326;2023-04-06T00:06:18;6.00;;;3.85;;
49678;SDS011;35570;48.218;16.326;2023-04-06T00:08:45;7.75;;;3.85;;
49678;SDS011;35570;48.218;16.326;2023-04-06T00:11:10;7.10;;;3.60;;
49678;SDS011;35570;48.218;16.326;2023-04-06T00:13:36;5.70;;;3.42;;
49678;SDS011;35570;48.218;16.326;2023-04-06T00:16:02;6.43;;;3.90;;
49678;SDS011;35570;48.218;16.326;2023-04-06T00:18:28;5.30;;;3.85;;
49678;SDS011;35570;48.218;16.326;2023-04-06T00:20:53;5.82;;;3.55;;
49678;SDS011;35570;48.218;16.326;2023-04-06T00:23:19;6.63;;;4.22;;
49678;SDS011;35570;48.218;16.326;2023-04-06T00:25:45;6.63;;;4.20;;
49678;SDS011;35570;48.218;16.326;2023-04-06T00:28:10;7.40;;;4.60;;
49678;SDS011;35570;48.218;16.326;2023-04-06T00:30:36;6.43;;;4.45;;
49678;SDS011;35570;48.218;16.326;2023-04-06T00:33:02;7.57;;;4.72;;
49678;SDS011;35570;48.218;16.326;2023-04-06T00:35:27;8.25;;;4.78;;
49678;SDS011;35570;48.218;16.326;2023-04-06T00:37:53;6.38;;;4.50;;
49678;SDS011;35570;48.218;16.326;2023-04-06T00:40:18;6.57;;;3.97;;
49678;SDS011;35570;48.218;16.326;2023-04-06T00:42:44;7.70;;;4.47;;
49678;SDS011;35570;48.218;16.326;2023-04-06T00:45:10;6.57;;;4.32;;
49678;SDS011;35570;48.218;16.326;2023-04-06T00:47:36;7.53;;;4.43;;
49678;SDS011;35570;48.218;16.326;2023-04-06T00:50:01;6.53;;;4.13;;
49678;SDS011;35570;48.218;16.326;2023-04-06T00:52:27;5.95;;;4.30;;
49678;SDS011;35570;48.218;16.326;2023-04-06T00:54:53;7.82;;;4.55;;
49678;SDS011;35570;48.218;16.326;2023-04-06T00:57:19;7.63;;;4.07;;
49678;SDS011;35570;48.218;16.326;2023-04-06T00:59:45;8.52;;;4.38;;
49678;SDS011;35570;48.218;16.326;2023-04-06T01:02:11;6.20;;;4.22;;
49678;SDS011;35570;48.218;16.326;2023-04-06T01:04:37;6.30;;;3.95;;
49678;SDS011;35570;48.218;16.326;2023-04-06T01:07:02;8.23;;;3.70;;
49678;SDS011;35570;48.218;16.326;2023-04-06T01:09:28;5.28;;;4.03;;
49678;SDS011;35570;48.218;16.326;2023-04-06T01:11:55;5.90;;;3.80;;
49678;SDS011;35570;48.218;16.326;2023-04-06T01:14:21;9.77;;;4.05;;
49678;SDS011;35570;48.218;16.326;2023-04-06T01:16:47;6.75;;;4.10;;
49678;SDS011;35570;48.218;16.326;2023-04-06T01:19:13;6.47;;;4.00;;
49678;SDS011;35570;48.218;16.326;2023-04-06T01:21:39;7.53;;;4.55;;
49678;SDS011;35570;48.218;16.326;2023-04-06T01:24:06;6.15;;;4.28;;
49678;SDS011;35570;48.218;16.326;2023-04-06T01:26:33;9.50;;;4.22;;
49678;SDS011;35570;48.218;16.326;2023-04-06T01:29:00;6.63;;;4.05;;
49678;SDS011;35570;48.218;16.326;2023-04-06T01:31:26;8.73;;;4.43;;
49678;SDS011;35570;48.218;16.326;2023-04-06T01:33:52;8.63;;;4.13;;
49678;SDS011;35570;48.218;16.326;2023-04-06T01:36:18;6.30;;;4.05;;
49678;SDS011;35570;48.218;16.326;2023-04-06T01:38:45;6.30;;;4.10;;
49678;SDS011;35570;48.218;16.326;2023-04-06T01:41:10;6.97;;;4.70;;
49678;SDS011;35570;48.218;16.326;2023-04-06T01:43:36;10.45;;;4.95;;
49678;SDS011;35570;48.218;16.326;2023-04-06T01:46:02;8.55;;;4.72;;
49678;SDS011;35570;48.218;16.326;2023-04-06T01:48:28;8.43;;;4.05;;
49678;SDS011;35570;48.218;16.326;2023-04-06T01:50:54;6.93;;;4.22;;
49678;SDS011;35570;48.218;16.326;2023-04-06T01:53:20;8.05;;;4.30;;
49678;SDS011;35570;48.218;16.326;2023-04-06T01:55:46;8.27;;;4.15;;
49678;SDS011;35570;48.218;16.326;2023-04-06T01:58:12;6.53;;;4.65;;
49678;SDS011;35570;48.218;16.326;2023-04-06T02:00:38;7.50;;;4.28;;
49678;SDS011;35570;48.218;16.326;2023-04-06T02:03:04;8.32;;;4.28;;
49678;SDS011;35570;48.218;16.326;2023-04-06T02:05:30;7.60;;;4.57;;
49678;SDS011;35570;48.218;16.326;2023-04-06T02:07:58;8.27;;;4.53;;
49678;SDS011;35570;48.218;16.326;2023-04-06T02:10:23;7.00;;;4.25;;
49678;SDS011;35570;48.218;16.326;2023-04-06T02:12:49;7.32;;;4.43;;
49678;SDS011;35570;48.218;16.326;2023-04-06T02:15:15;8.35;;;4.45;;
49678;SDS011;35570;48.218;16.326;2023-04-06T02:17:41;7.30;;;4.38;;
49678;SDS011;35570;48.218;16.326;2023-04-06T02:20:07;7.65;;;4.68;;
49678;SDS011;35570;48.218;16.326;2023-04-06T02:22:36;8.25;;;4.47;;
49678;SDS011;35570;48.218;16.326;2023-04-06T02:25:02;7.65;;;4.40;;
49678;SDS011;35570;48.218;16.326;2023-04-06T02:27:27;5.68;;;4.20;;
49678;SDS011;35570;48.218;16.326;2023-04-06T02:29:53;9.43;;;4.43;;
49678;SDS011;35570;48.218;16.326;2023-04-06T02:32:19;13.73;;;5.10;;
49678;SDS011;35570;48.218;16.326;2023-04-06T02:34:44;7.72;;;3.95;;
49678;SDS011;35570;48.218;16.326;2023-04-06T02:37:10;9.10;;;4.45;;
49678;SDS011;35570;48.218;16.326;2023-04-06T02:39:36;6.32;;;4.20;;
49678;SDS011;35570;48.218;16.326;2023-04-06T02:42:01;6.93;;;4.45;;
49678;SDS011;35570;48.218;16.326;2023-04-06T02:44:27;7.13;;;4.25;;
49678;SDS011;35570;48.218;16.326;2023-04-06T02:46:52;8.13;;;4.53;;
49678;SDS011;35570;48.218;16.326;2023-04-06T02:49:18;7.55;;;4.80;;
49678;SDS011;35570;48.218;16.326;2023-04-06T02:51:44;6.40;;;3.90;;
49678;SDS011;35570;48.218;16.326;2023-04-06T02:54:09;7.28;;;4.10;;
49678;SDS011;35570;48.218;16.326;2023-04-06T02:56:35;5.47;;;3.80;;
49678;SDS011;35570;48.218;16.326;2023-04-06T02:59:01;8.07;;;4.65;;
49678;SDS011;35570;48.218;16.326;2023-04-06T03:01:26;6.35;;;3.95;;
49678;SDS011;35570;48.218;16.326;2023-04-06T03:03:52;8.48;;;4.70;;
49678;SDS011;35570;48.218;16.326;2023-04-06T03:06:18;5.78;;;4.38;;
49678;SDS011;35570;48.218;16.326;2023-04-06T03:08:43;7.28;;;4.00;;
49678;SDS011;35570;48.218;16.326;2023-04-06T03:11:09;12.25;;;4.93;;
49678;SDS011;35570;48.218;16.326;2023-04-06T03:13:36;6.10;;;4.18;;
49678;SDS011;35570;48.218;16.326;2023-04-06T03:16:03;6.85;;;4.00;;
49678;SDS011;35570;48.218;16.326;2023-04-06T03:18:29;6.97;;;4.40;;
49678;SDS011;35570;48.218;16.326;2023-04-06T03:20:55;6.40;;;3.90;;
49678;SDS011;35570;48.218;16.326;2023-04-06T03:23:21;4.82;;;3.90;;
49678;SDS011;35570;48.218;16.326;2023-04-06T03:25:46;8.27;;;4.28;;
49678;SDS011;35570;48.218;16.326;2023-04-06T03:28:12;7.35;;;4.35;;
49678;SDS011;35570;48.218;16.326;2023-04-06T03:30:38;8.15;;;4.32;;
49678;SDS011;35570;48.218;16.326;2023-04-06T03:33:03;6.60;;;4.32;;
49678;SDS011;35570;48.218;16.326;2023-04-06T03:35:29;7.45;;;4.00;;
49678;SDS011;35570;48.218;16.326;2023-04-06T03:37:55;7.85;;;5.03;;
49678;SDS011;35570;48.218;16.326;2023-04-06T03:40:20;5.90;;;3.88;;
49678;SDS011;35570;48.218;16.326;2023-04-06T03:42:46;6.38;;;4.20;;
49678;SDS011;35570;48.218;16.326;2023-04-06T03:45:11;6.50;;;4.00;;
49678;SDS011;35570;48.218;16.326;2023-04-06T03:47:40;6.75;;;4.05;;
49678;SDS011;35570;48.218;16.326;2023-04-06T03:50:06;6.38;;;4.35;;
49678;SDS011;35570;48.218;16.326;2023-04-06T03:52:32;6.13;;;3.88;;
49678;SDS011;35570;48.218;16.326;2023-04-06T03:54:57;7.28;;;4.75;;
49678;SDS011;35570;48.218;16.326;2023-04-06T03:57:23;6.50;;;4.60;;
49678;SDS011;35570;48.218;16.326;2023-04-06T03:59:48;7.68;;;4.80;;
49678;SDS011;35570;48.218;16.326;2023-04-06T04:02:14;7.47;;;4.75;;
49678;SDS011;35570;48.218;16.326;2023-04-06T04:04:40;9.48;;;4.70;;
49678;SDS011;35570;48.218;16.326;2023-04-06T04:07:05;10.70;;;4.40;;
49678;SDS011;35570;48.218;16.326;2023-04-06T04:09:31;8.40;;;5.07;;
49678;SDS011;35570;48.218;16.326;2023-04-06T04:11:56;8.77;;;4.55;;
49678;SDS011;35570;48.218;16.326;2023-04-06T04:14:22;7.38;;;4.70;;
49678;SDS011;35570;48.218;16.326;2023-04-06T04:16:48;7.43;;;4.68;;
49678;SDS011;35570;48.218;16.326;2023-04-06T04:19:13;8.75;;;4.65;;
49678;SDS011;35570;48.218;16.326;2023-04-06T04:21:42;7.70;;;5.13;;
49678;SDS011;35570;48.218;16.326;2023-04-06T04:24:10;9.55;;;4.88;;
49678;SDS011;35570;48.218;16.326;2023-04-06T04:26:35;8.35;;;5.07;;
49678;SDS011;35570;48.218;16.326;2023-04-06T04:29:02;8.05;;;5.20;;
49678;SDS011;35570;48.218;16.326;2023-04-06T04:31:27;7.93;;;5.13;;
49678;SDS011;35570;48.218;16.326;2023-04-06T04:33:53;10.30;;;5.80;;
49678;SDS011;35570;48.218;16.326;2023-04-06T04:36:19;7.13;;;5.25;;
49678;SDS011;35570;48.218;16.326;2023-04-06T04:38:44;6.32;;;5.00;;
49678;SDS011;35570;48.218;16.326;2023-04-06T04:41:10;8.27;;;5.72;;
49678;SDS011;35570;48.218;16.326;2023-04-06T04:43:35;10.98;;;5.43;;
49678;SDS011;35570;48.218;16.326;2023-04-06T04:46:01;7.50;;;5.57;;
49678;SDS011;35570;48.218;16.326;2023-04-06T04:48:28;7.57;;;5.28;;
49678;SDS011;35570;48.218;16.326;2023-04-06T04:50:54;7.97;;;5.82;;
49678;SDS011;35570;48.218;16.326;2023-04-06T04:53:20;8.25;;;4.88;;
49678;SDS011;35570;48.218;16.326;2023-04-06T04:55:45;6.75;;;5.53;;
49678;SDS011;35570;48.218;16.326;2023-04-06T04:58:11;8.35;;;5.32;;
49678;SDS011;35570;48.218;16.326;2023-04-06T05:00:41;7.90;;;5.35;;
49678;SDS011;35570;48.218;16.326;2023-04-06T05:03:07;9.25;;;5.30;;
49678;SDS011;35570;48.218;16.326;2023-04-06T05:05:34;8.63;;;5.80;;
49678;SDS011;35570;48.218;16.326;2023-04-06T05:08:00;9.60;;;5.28;;
49678;SDS011;35570;48.218;16.326;2023-04-06T05:10:26;9.38;;;5.47;;
49678;SDS011;35570;48.218;16.326;2023-04-06T05:12:52;9.75;;;5.53;;
49678;SDS011;35570;48.218;16.326;2023-04-06T05:15:17;9.30;;;5.47;;
49678;SDS011;35570;48.218;16.326;2023-04-06T05:17:43;8.90;;;5.53;;
49678;SDS011;35570;48.218;16.326;2023-04-06T05:20:09;8.25;;;5.90;;
49678;SDS011;35570;48.218;16.326;2023-04-06T05:22:35;9.80;;;5.47;;
49678;SDS011;35570;48.218;16.326;2023-04-06T05:25:01;8.30;;;5.40;;
49678;SDS011;35570;48.218;16.326;2023-04-06T05:27:27;9.10;;;5.20;;
49678;SDS011;35570;48.218;16.326;2023-04-06T05:29:53;7.47;;;5.00;;
49678;SDS011;35570;48.218;16.326;2023-04-06T05:32:19;7.47;;;5.30;;
49678;SDS011;35570;48.218;16.326;2023-04-06T05:34:47;9.23;;;5.13;;
49678;SDS011;35570;48.218;16.326;2023-04-06T05:37:14;6.90;;;4.70;;
49678;SDS011;35570;48.218;16.326;2023-04-06T05:39:40;8.32;;;5.10;;
49678;SDS011;35570;48.218;16.326;2023-04-06T05:42:06;7.75;;;5.00;;
49678;SDS011;35570;48.218;16.326;2023-04-06T05:44:32;18.45;;;4.95;;
49678;SDS011;35570;48.218;16.326;2023-04-06T05:46:58;7.90;;;5.50;;
49678;SDS011;35570;48.218;16.326;2023-04-06T05:49:23;9.45;;;5.80;;
49678;SDS011;35570;48.218;16.326;2023-04-06T05:51:49;11.60;;;5.88;;
49678;SDS011;35570;48.218;16.326;2023-04-06T05:54:15;10.25;;;5.30;;
49678;SDS011;35570;48.218;16.326;2023-04-06T05:56:40;7.10;;;4.80;;
49678;SDS011;35570;48.218;16.326;2023-04-06T05:59:06;9.27;;;5.07;;
49678;SDS011;35570;48.218;16.326;2023-04-06T06:01:32;7.72;;;5.15;;
49678;SDS011;35570;48.218;16.326;2023-04-06T06:04:02;10.10;;;5.72;;
49678;SDS011;35570;48.218;16.326;2023-04-06T06:06:28;10.40;;;5.90;;
49678;SDS011;35570;48.218;16.326;2023-04-06T06:08:55;8.52;;;6.15;;
49678;SDS011;35570;48.218;16.326;2023-04-06T06:11:24;9.45;;;5.53;;
49678;SDS011;35570;48.218;16.326;2023-04-06T06:13:50;9.77;;;5.97;;
49678;SDS011;35570;48.218;16.326;2023-04-06T06:16:16;8.35;;;5.10;;
49678;SDS011;35570;48.218;16.326;2023-04-06T06:18:43;7.13;;;5.13;;
49678;SDS011;35570;48.218;16.326;2023-04-06T06:21:08;8.07;;;5.45;;
49678;SDS011;35570;48.218;16.326;2023-04-06T06:23:36;10.75;;;5.45;;
49678;SDS011;35570;48.218;16.326;2023-04-06T06:26:02;8.07;;;4.97;;
49678;SDS011;35570;48.218;16.326;2023-04-06T06:28:28;6.78;;;5.18;;
49678;SDS011;35570;48.218;16.326;2023-04-06T06:30:53;9.90;;;4.68;;
49678;SDS011;35570;48.218;16.326;2023-04-06T06:33:19;9.50;;;5.30;;
49678;SDS011;35570;48.218;16.326;2023-04-06T06:35:44;9.05;;;5.40;;
49678;SDS011;35570;48.218;16.326;2023-04-06T06:38:10;8.35;;;5.25;;
49678;SDS011;35570;48.218;16.326;2023-04-06T06:40:36;9.85;;;6.13;;
49678;SDS011;35570;48.218;16.326;2023-04-06T06:43:01;7.97;;;5.03;;
49678;SDS011;35570;48.218;16.326;2023-04-06T06:45:27;8.25;;;5.40;;
49678;SDS011;35570;48.218;16.326;2023-04-06T06:47:54;10.05;;;5.20;;
49678;SDS011;35570;48.218;16.326;2023-04-06T06:50:20;11.48;;;5.72;;
49678;SDS011;35570;48.218;16.326;2023-04-06T06:52:45;8.82;;;5.72;;
49678;SDS011;35570;48.218;16.326;2023-04-06T06:55:11;9.70;;;5.70;;
49678;SDS011;35570;48.218;16.326;2023-04-06T06:57:37;9.52;;;5.60;;
49678;SDS011;35570;48.218;16.326;2023-04-06T07:00:03;14.40;;;7.03;;
49678;SDS011;35570;48.218;16.326;2023-04-06T07:02:30;10.38;;;6.68;;
49678;SDS011;35570;48.218;16.326;2023-04-06T07:04:56;11.23;;;6.13;;
49678;SDS011;35570;48.218;16.326;2023-04-06T07:07:22;9.52;;;5.70;;
49678;SDS011;35570;48.218;16.326;2023-04-06T07:09:47;8.45;;;5.43;;
49678;SDS011;35570;48.218;16.326;2023-04-06T07:12:13;7.53;;;5.28;;
49678;SDS011;35570;48.218;16.326;2023-04-06T07:14:38;9.23;;;5.75;;
49678;SDS011;35570;48.218;16.326;2023-04-06T07:17:04;9.80;;;5.43;;
49678;SDS011;35570;48.218;16.326;2023-04-06T07:19:30;7.00;;;4.80;;
49678;SDS011;35570;48.218;16.326;2023-04-06T07:21:55;6.32;;;5.45;;
49678;SDS011;35570;48.218;16.326;2023-04-06T07:24:21;8.38;;;6.03;;
49678;SDS011;35570;48.218;16.326;2023-04-06T07:26:47;8.25;;;5.38;;
49678;SDS011;35570;48.218;16.326;2023-04-06T07:29:12;7.32;;;4.93;;
49678;SDS011;35570;48.218;16.326;2023-04-06T07:31:38;11.25;;;5.80;;
49678;SDS011;35570;48.218;16.326;2023-04-06T07:34:03;9.55;;;5.20;;
49678;SDS011;35570;48.218;16.326;2023-04-06T07:36:30;9.15;;;5.93;;
49678;SDS011;35570;48.218;16.326;2023-04-06T07:38:55;7.78;;;5.68;;
49678;SDS011;35570;48.218;16.326;2023-04-06T07:41:21;9.45;;;5.78;;
49678;SDS011;35570;48.218;16.326;2023-04-06T07:43:46;9.05;;;5.22;;
49678;SDS011;35570;48.218;16.326;2023-04-06T07:46:13;11.90;;;5.70;;
49678;SDS011;35570;48.218;16.326;2023-04-06T07:48:38;7.63;;;5.35;;
49678;SDS011;35570;48.218;16.326;2023-04-06T07:51:04;10.43;;;5.47;;
49678;SDS011;35570;48.218;16.326;2023-04-06T07:53:32;8.15;;;5.00;;
49678;SDS011;35570;48.218;16.326;2023-04-06T07:55:58;11.30;;;6.40;;
49678;SDS011;35570;48.218;16.326;2023-04-06T07:58:24;7.57;;;5.70;;
49678;SDS011;35570;48.218;16.326;2023-04-06T08:00:49;7.13;;;5.55;;
49678;SDS011;35570;48.218;16.326;2023-04-06T08:03:15;8.05;;;4.75;;
49678;SDS011;35570;48.218;16.326;2023-04-06T08:05:41;5.57;;;4.30;;
49678;SDS011;35570;48.218;16.326;2023-04-06T08:08:07;7.78;;;4.20;;
49678;SDS011;35570;48.218;16.326;2023-04-06T08:10:33;7.38;;;4.30;;
49678;SDS011;35570;48.218;16.326;2023-04-06T08:12:59;6.03;;;3.80;;
49678;SDS011;35570;48.218;16.326;2023-04-06T08:15:25;6.05;;;3.90;;
49678;SDS011;35570;48.218;16.326;2023-04-06T08:17:51;6.80;;;4.65;;
49678;SDS011;35570;48.218;16.326;2023-04-06T08:20:16;7.28;;;4.47;;
49678;SDS011;35570;48.218;16.326;2023-04-06T08:22:42;5.88;;;3.47;;
49678;SDS011;35570;48.218;16.326;2023-04-06T08:25:08;6.45;;;3.72;;
49678;SDS011;35570;48.218;16.326;2023-04-06T08:27:33;9.25;;;4.65;;
49678;SDS011;35570;48.218;16.326;2023-04-06T08:29:59;7.20;;;5.13;;
49678;SDS011;35570;48.218;16.326;2023-04-06T08:32:25;6.68;;;4.47;;
49678;SDS011;35570;48.218;16.326;2023-04-06T08:34:53;6.40;;;4.35;;
49678;SDS011;35570;48.218;16.326;2023-04-06T08:37:19;7.95;;;4.75;;
49678;SDS011;35570;48.218;16.326;2023-04-06T08:39:46;9.13;;;4.18;;
49678;SDS011;35570;48.218;16.326;2023-04-06T08:42:55;6.90;;;4.07;;
49678;SDS011;35570;48.218;16.326;2023-04-06T08:45:05;9.07;;;4.28;;
49678;SDS011;35570;48.218;16.326;2023-04-06T08:47:31;7.57;;;3.85;;
49678;SDS011;35570;48.218;16.326;2023-04-06T08:49:57;5.22;;;2.92;;
49678;SDS011;35570;48.218;16.326;2023-04-06T08:52:25;4.88;;;3.20;;
49678;SDS011;35570;48.218;16.326;2023-04-06T08:54:52;4.30;;;2.60;;
49678;SDS011;35570;48.218;16.326;2023-04-06T08:57:18;5.93;;;3.40;;
49678;SDS011;35570;48.218;16.326;2023-04-06T08:59:44;5.10;;;3.30;;
49678;SDS011;35570;48.218;16.326;2023-04-06T09:02:12;5.82;;;3.30;;
49678;SDS011;35570;48.218;16.326;2023-04-06T09:04:42;8.02;;;4.25;;
49678;SDS011;35570;48.218;16.326;2023-04-06T09:07:10;5.38;;;3.65;;
49678;SDS011;35570;48.218;16.326;2023-04-06T09:09:35;6.28;;;3.67;;
49678;SDS011;35570;48.218;16.326;2023-04-06T09:12:01;6.00;;;3.53;;
49678;SDS011;35570;48.218;16.326;2023-04-06T09:14:37;5.55;;;3.95;;
49678;SDS011;35570;48.218;16.326;2023-04-06T09:17:03;5.22;;;3.70;;
49678;SDS011;35570;48.218;16.326;2023-04-06T09:19:29;3.97;;;2.70;;
49678;SDS011;35570;48.218;16.326;2023-04-06T09:22:02;4.72;;;2.58;;
49678;SDS011;35570;48.218;16.326;2023-04-06T09:24:38;3.42;;;2.60;;
49678;SDS011;35570;48.218;16.326;2023-04-06T09:27:08;4.05;;;2.60;;
49678;SDS011;35570;48.218;16.326;2023-04-06T09:29:34;5.78;;;2.90;;
49678;SDS011;35570;48.218;16.326;2023-04-06T09:32:05;6.63;;;2.70;;
49678;SDS011;35570;48.218;16.326;2023-04-06T09:34:32;6.45;;;3.42;;
49678;SDS011;35570;48.218;16.326;2023-04-06T09:36:58;5.32;;;2.60;;
49678;SDS011;35570;48.218;16.326;2023-04-06T09:39:24;6.75;;;2.60;;
49678;SDS011;35570;48.218;16.326;2023-04-06T09:41:50;4.25;;;2.70;;
49678;SDS011;35570;48.218;16.326;2023-04-06T09:44:17;4.32;;;2.50;;
49678;SDS011;35570;48.218;16.326;2023-04-06T09:46:44;5.13;;;2.33;;
49678;SDS011;35570;48.218;16.326;2023-04-06T09:49:11;2.85;;;2.17;;
49678;SDS011;35570;48.218;16.326;2023-04-06T09:51:38;4.95;;;2.47;;
49678;SDS011;35570;48.218;16.326;2023-04-06T09:54:06;3.78;;;2.17;;
49678;SDS011;35570;48.218;16.326;2023-04-06T09:56:45;3.22;;;2.35;;
49678;SDS011;35570;48.218;16.326;2023-04-06T09:59:16;5.95;;;2.40;;
49678;SDS011;35570;48.218;16.326;2023-04-06T10:01:50;3.55;;;2.38;;
49678;SDS011;35570;48.218;16.326;2023-04-06T10:04:20;4.43;;;2.25;;
49678;SDS011;35570;48.218;16.326;2023-04-06T10:06:52;2.22;;;1.90;;
49678;SDS011;35570;48.218;16.326;2023-04-06T10:09:20;3.25;;;1.60;;
49678;SDS011;35570;48.218;16.326;2023-04-06T10:11:50;1.77;;;1.48;;
49678;SDS011;35570;48.218;16.326;2023-04-06T10:14:16;2.42;;;1.85;;
49678;SDS011;35570;48.218;16.326;2023-04-06T10:16:42;2.50;;;1.65;;
49678;SDS011;35570;48.218;16.326;2023-04-06T10:19:17;3.70;;;1.75;;
49678;SDS011;35570;48.218;16.326;2023-04-06T10:21:48;4.85;;;1.98;;
49678;SDS011;35570;48.218;16.326;2023-04-06T10:24:17;4.55;;;2.13;;
49678;SDS011;35570;48.218;16.326;2023-04-06T10:26:43;3.35;;;2.47;;
49678;SDS011;35570;48.218;16.326;2023-04-06T10:29:08;3.67;;;2.38;;
49678;SDS011;35570;48.218;16.326;2023-04-06T10:31:38;2.95;;;1.90;;
49678;SDS011;35570;48.218;16.326;2023-04-06T10:34:07;4.03;;;2.10;;
49678;SDS011;35570;48.218;16.326;2023-04-06T10:36:33;3.53;;;2.10;;
49678;SDS011;35570;48.218;16.326;2023-04-06T10:39:03;5.82;;;2.25;;
49678;SDS011;35570;48.218;16.326;2023-04-06T10:41:33;2.95;;;2.10;;
49678;SDS011;35570;48.218;16.326;2023-04-06T10:44:00;4.05;;;2.22;;
49678;SDS011;35570;48.218;16.326;2023-04-06T10:46:27;3.78;;;2.10;;
49678;SDS011;35570;48.218;16.326;2023-04-06T10:48:58;3.25;;;2.33;;
49678;SDS011;35570;48.218;16.326;2023-04-06T10:51:37;4.25;;;2.13;;
49678;SDS011;35570;48.218;16.326;2023-04-06T10:54:03;2.58;;;1.75;;
49678;SDS011;35570;48.218;16.326;2023-04-06T10:56:30;3.60;;;2.75;;
49678;SDS011;35570;48.218;16.326;2023-04-06T10:58:59;4.05;;;2.30;;
49678;SDS011;35570;48.218;16.326;2023-04-06T11:01:25;5.32;;;2.05;;
49678;SDS011;35570;48.218;16.326;2023-04-06T11:03:54;2.50;;;1.85;;
49678;SDS011;35570;48.218;16.326;2023-04-06T11:08:50;3.75;;;2.30;;
49678;SDS011;35570;48.218;16.326;2023-04-06T11:11:17;3.55;;;2.25;;
49678;SDS011;35570;48.218;16.326;2023-04-06T11:16:23;3.08;;;2.10;;
49678;SDS011;35570;48.218;16.326;2023-04-06T11:18:58;3.25;;;1.77;;
49678;SDS011;35570;48.218;16.326;2023-04-06T11:21:31;5.88;;;1.90;;
49678;SDS011;35570;48.218;16.326;2023-04-06T11:26:40;3.20;;;1.90;;
49678;SDS011;35570;48.218;16.326;2023-04-06T11:29:05;4.35;;;2.08;;
49678;SDS011;35570;48.218;16.326;2023-04-06T11:31:31;2.58;;;2.08;;
49678;SDS011;35570;48.218;16.326;2023-04-06T11:34:13;3.85;;;2.10;;
49678;SDS011;35570;48.218;16.326;2023-04-06T11:36:42;3.47;;;2.40;;
49678;SDS011;35570;48.218;16.326;2023-04-06T11:39:09;2.42;;;1.73;;
49678;SDS011;35570;48.218;16.326;2023-04-06T11:41:36;2.25;;;1.88;;
49678;SDS011;35570;48.218;16.326;2023-04-06T11:44:02;3.08;;;1.60;;
49678;SDS011;35570;48.218;16.326;2023-04-06T11:46:28;3.50;;;2.03;;
49678;SDS011;35570;48.218;16.326;2023-04-06T11:48:57;3.00;;;1.98;;
49678;SDS011;35570;48.218;16.326;2023-04-06T11:51:25;4.15;;;1.75;;
49678;SDS011;35570;48.218;16.326;2023-04-06T11:53:51;3.22;;;1.80;;
49678;SDS011;35570;48.218;16.326;2023-04-06T11:56:27;2.95;;;1.67;;
49678;SDS011;35570;48.218;16.326;2023-04-06T11:58:54;3.13;;;1.48;;
49678;SDS011;35570;48.218;16.326;2023-04-06T12:01:21;3.13;;;1.63;;
49678;SDS011;35570;48.218;16.326;2023-04-06T12:03:47;4.97;;;2.42;;
49678;SDS011;35570;48.218;16.326;2023-04-06T12:06:13;2.22;;;1.50;;
49678;SDS011;35570;48.218;16.326;2023-04-06T12:08:39;2.55;;;1.50;;
49678;SDS011;35570;48.218;16.326;2023-04-06T12:11:05;5.53;;;2.00;;
49678;SDS011;35570;48.218;16.326;2023-04-06T12:13:31;3.55;;;1.52;;
49678;SDS011;35570;48.218;16.326;2023-04-06T12:15:57;3.88;;;1.73;;
49678;SDS011;35570;48.218;16.326;2023-04-06T12:18:22;3.72;;;1.95;;
49678;SDS011;35570;48.218;16.326;2023-04-06T12:20:48;4.78;;;1.90;;
49678;SDS011;35570;48.218;16.326;2023-04-06T12:23:14;3.13;;;2.13;;
49678;SDS011;35570;48.218;16.326;2023-04-06T12:25:40;2.58;;;1.55;;
49678;SDS011;35570;48.218;16.326;2023-04-06T12:28:07;1.58;;;1.48;;
49678;SDS011;35570;48.218;16.326;2023-04-06T12:30:34;2.28;;;1.30;;
49678;SDS011;35570;48.218;16.326;2023-04-06T12:33:00;3.45;;;1.95;;
49678;SDS011;35570;48.218;16.326;2023-04-06T12:35:26;2.03;;;1.45;;
49678;SDS011;35570;48.218;16.326;2023-04-06T12:37:52;4.50;;;1.73;;
49678;SDS011;35570;48.218;16.326;2023-04-06T12:40:18;3.22;;;1.50;;
49678;SDS011;35570;48.218;16.326;2023-04-06T12:42:43;2.40;;;1.52;;
49678;SDS011;35570;48.218;16.326;2023-04-06T12:45:10;1.88;;;1.42;;
49678;SDS011;35570;48.218;16.326;2023-04-06T12:47:36;1.77;;;1.30;;
49678;SDS011;35570;48.218;16.326;2023-04-06T12:50:03;2.90;;;1.60;;
49678;SDS011;35570;48.218;16.326;2023-04-06T12:52:30;2.20;;;1.48;;
49678;SDS011;35570;48.218;16.326;2023-04-06T12:54:57;3.65;;;1.40;;
49678;SDS011;35570;48.218;16.326;2023-04-06T12:57:25;6.07;;;1.90;;
49678;SDS011;35570;48.218;16.326;2023-04-06T12:59:51;2.95;;;1.98;;
49678;SDS011;35570;48.218;16.326;2023-04-06T13:02:17;4.82;;;2.40;;
49678;SDS011;35570;48.218;16.326;2023-04-06T13:04:45;2.55;;;1.83;;
49678;SDS011;35570;48.218;16.326;2023-04-06T13:07:10;2.95;;;1.50;;
49678;SDS011;35570;48.218;16.326;2023-04-06T13:09:36;5.93;;;1.58;;
49678;SDS011;35570;48.218;16.326;2023-04-06T13:12:02;2.80;;;1.27;;
49678;SDS011;35570;48.218;16.326;2023-04-06T13:14:28;1.95;;;1.15;;
49678;SDS011;35570;48.218;16.326;2023-04-06T13:16:53;2.20;;;1.50;;
49678;SDS011;35570;48.218;16.326;2023-04-06T13:19:19;3.38;;;1.50;;
49678;SDS011;35570;48.218;16.326;2023-04-06T13:21:45;2.50;;;1.60;;
49678;SDS011;35570;48.218;16.326;2023-04-06T13:24:11;3.10;;;1.50;;
49678;SDS011;35570;48.218;16.326;2023-04-06T13:26:36;2.33;;;1.50;;
49678;SDS011;35570;48.218;16.326;2023-04-06T13:29:02;2.45;;;1.70;;
49678;SDS011;35570;48.218;16.326;2023-04-06T13:31:28;3.78;;;2.22;;
49678;SDS011;35570;48.218;16.326;2023-04-06T13:33:54;3.53;;;1.83;;
49678;SDS011;35570;48.218;16.326;2023-04-06T13:36:20;2.42;;;1.80;;
49678;SDS011;35570;48.218;16.326;2023-04-06T13:38:46;2.30;;;1.60;;
49678;SDS011;35570;48.218;16.326;2023-04-06T13:41:21;3.97;;;1.40;;
49678;SDS011;35570;48.218;16.326;2023-04-06T13:43:48;4.68;;;1.73;;
49678;SDS011;35570;48.218;16.326;2023-04-06T13:46:13;2.58;;;1.52;;
49678;SDS011;35570;48.218;16.326;2023-04-06T13:48:39;2.60;;;1.58;;
49678;SDS011;35570;48.218;16.326;2023-04-06T13:51:09;3.15;;;2.20;;
49678;SDS011;35570;48.218;16.326;2023-04-06T13:53:35;3.47;;;1.75;;
49678;SDS011;35570;48.218;16.326;2023-04-06T13:56:01;3.92;;;1.52;;
49678;SDS011;35570;48.218;16.326;2023-04-06T13:58:27;2.60;;;1.50;;
49678;SDS011;35570;48.218;16.326;2023-04-06T14:00:52;3.78;;;1.30;;
49678;SDS011;35570;48.218;16.326;2023-04-06T14:03:18;1.50;;;1.20;;
49678;SDS011;35570;48.218;16.326;2023-04-06T14:05:45;2.38;;;1.52;;
49678;SDS011;35570;48.218;16.326;2023-04-06T14:08:11;1.70;;;1.27;;
49678;SDS011;35570;48.218;16.326;2023-04-06T14:10:39;1.50;;;1.30;;
49678;SDS011;35570;48.218;16.326;2023-04-06T14:13:07;3.42;;;1.73;;
49678;SDS011;35570;48.218;16.326;2023-04-06T14:15:32;6.35;;;1.55;;
49678;SDS011;35570;48.218;16.326;2023-04-06T14:17:58;1.73;;;1.60;;
49678;SDS011;35570;48.218;16.326;2023-04-06T14:20:25;2.75;;;1.55;;
49678;SDS011;35570;48.218;16.326;2023-04-06T14:22:51;3.15;;;1.70;;
49678;SDS011;35570;48.218;16.326;2023-04-06T14:25:17;2.75;;;1.60;;
49678;SDS011;35570;48.218;16.326;2023-04-06T14:27:43;5.57;;;1.77;;
49678;SDS011;35570;48.218;16.326;2023-04-06T14:30:09;2.22;;;1.60;;
49678;SDS011;35570;48.218;16.326;2023-04-06T14:32:35;4.00;;;1.92;;
49678;SDS011;35570;48.218;16.326;2023-04-06T14:35:02;2.47;;;1.55;;
49678;SDS011;35570;48.218;16.326;2023-04-06T14:37:31;2.72;;;1.52;;